sensor_id;sensor_type;location;lat;lon;timestamp;temperature;humidity
34815;DHT22;21030;53.912;15.214;2023-11-19T00:00:32;27.70;24.40
34815;DHT22;21030;53.912;15.214;2023-11-19T00:02:59;27.10;24.70
34815;DHT22;21030;53.912;15.214;2023-11-19T00:05:26;26.70;25.20
34815;DHT22;21030;53.912;15.214;2023-11-19T00:07:54;26.40;25.60
34815;DHT22;21030;53.912;15.214;2023-11-19T00:10:21;26.50;25.40
34815;DHT22;21030;53.912;15.214;2023-11-19T00:12:49;26.30;25.60
34815;DHT22;21030;53.912;15.214;2023-11-19T00:15:17;25.80;25.90
34815;DHT22;21030;53.912;15.214;2023-11-19T00:17:47;24.50;26.90
34815;DHT22;21030;53.912;15.214;2023-11-19T00:20:17;25.40;26.90
34815;DHT22;21030;53.912;15.214;2023-11-19T00:22:45;24.20;27.10
34815;DHT22;21030;53.912;15.214;2023-11-19T00:25:19;25.60;27.00
34815;DHT22;21030;53.912;15.214;2023-11-19T00:27:47;25.10;26.80
34815;DHT22;21030;53.912;15.214;2023-11-19T00:30:14;24.60;27.30
34815;DHT22;21030;53.912;15.214;2023-11-19T00:32:42;24.50;27.30
34815;DHT22;21030;53.912;15.214;2023-11-19T00:35:09;24.90;27.00
34815;DHT22;21030;53.912;15.214;2023-11-19T00:37:43;24.90;26.90
34815;DHT22;21030;53.912;15.214;2023-11-19T00:40:10;25.20;27.00
34815;DHT22;21030;53.912;15.214;2023-11-19T00:42:38;24.60;27.10
34815;DHT22;21030;53.912;15.214;2023-11-19T00:45:05;24.20;27.80
34815;DHT22;21030;53.912;15.214;2023-11-19T00:47:37;25.20;27.40
34815;DHT22;21030;53.912;15.214;2023-11-19T00:50:05;24.60;27.20
34815;DHT22;21030;53.912;15.214;2023-11-19T00:52:33;24.70;27.70
34815;DHT22;21030;53.912;15.214;2023-11-19T00:55:00;24.70;27.60
34815;DHT22;21030;53.912;15.214;2023-11-19T00:57:27;24.20;27.60
34815;DHT22;21030;53.912;15.214;2023-11-19T00:59:54;24.60;27.40
34815;DHT22;21030;53.912;15.214;2023-11-19T01:02:21;24.10;27.40
34815;DHT22;21030;53.912;15.214;2023-11-19T01:04:49;24.00;27.90
34815;DHT22;21030;53.912;15.214;2023-11-19T01:07:16;23.60;28.50
34815;DHT22;21030;53.912;15.214;2023-11-19T01:09:43;24.70;28.10
34815;DHT22;21030;53.912;15.214;2023-11-19T01:12:10;24.70;27.70
34815;DHT22;21030;53.912;15.214;2023-11-19T01:14:37;24.70;27.10
34815;DHT22;21030;53.912;15.214;2023-11-19T01:17:05;24.70;27.00
34815;DHT22;21030;53.912;15.214;2023-11-19T01:19:32;24.70;27.00
34815;DHT22;21030;53.912;15.214;2023-11-19T01:22:00;25.10;27.00
34815;DHT22;21030;53.912;15.214;2023-11-19T01:24:27;24.60;26.90
34815;DHT22;21030;53.912;15.214;2023-11-19T01:26:55;25.00;27.40
34815;DHT22;21030;53.912;15.214;2023-11-19T01:29:24;24.90;26.80
34815;DHT22;21030;53.912;15.214;2023-11-19T01:31:51;24.40;27.10
34815;DHT22;21030;53.912;15.214;2023-11-19T01:34:18;25.20;27.20
34815;DHT22;21030;53.912;15.214;2023-11-19T01:36:46;24.00;27.30
34815;DHT22;21030;53.912;15.214;2023-11-19T01:39:16;24.00;27.30
34815;DHT22;21030;53.912;15.214;2023-11-19T01:41:43;24.50;27.40
34815;DHT22;21030;53.912;15.214;2023-11-19T01:44:10;24.30;27.50
34815;DHT22;21030;53.912;15.214;2023-11-19T01:46:44;24.50;27.90
34815;DHT22;21030;53.912;15.214;2023-11-19T01:49:15;24.80;26.80
34815;DHT22;21030;53.912;15.214;2023-11-19T01:51:45;25.10;26.70
34815;DHT22;21030;53.912;15.214;2023-11-19T01:54:14;25.10;25.90
34815;DHT22;21030;53.912;15.214;2023-11-19T01:56:42;24.80;26.60
34815;DHT22;21030;53.912;15.214;2023-11-19T01:59:13;25.10;26.60
34815;DHT22;21030;53.912;15.214;2023-11-19T02:01:41;24.00;27.00
34815;DHT22;21030;53.912;15.214;2023-11-19T02:04:09;23.70;27.90
34815;DHT22;21030;53.912;15.214;2023-11-19T02:06:40;23.60;27.70
34815;DHT22;21030;53.912;15.214;2023-11-19T02:09:08;24.60;27.20
34815;DHT22;21030;53.912;15.214;2023-11-19T02:11:35;24.50;27.00
34815;DHT22;21030;53.912;15.214;2023-11-19T02:14:02;24.00;27.50
34815;DHT22;21030;53.912;15.214;2023-11-19T02:16:33;23.00;27.60
34815;DHT22;21030;53.912;15.214;2023-11-19T02:19:01;22.40;28.40
34815;DHT22;21030;53.912;15.214;2023-11-19T02:21:28;22.60;29.60
34815;DHT22;21030;53.912;15.214;2023-11-19T02:23:55;23.00;28.50
34815;DHT22;21030;53.912;15.214;2023-11-19T02:27:03;22.80;28.60
34815;DHT22;21030;53.912;15.214;2023-11-19T02:29:34;23.50;28.50
34815;DHT22;21030;53.912;15.214;2023-11-19T02:32:01;23.50;28.40
34815;DHT22;21030;53.912;15.214;2023-11-19T02:34:30;22.80;29.10
34815;DHT22;21030;53.912;15.214;2023-11-19T02:36:57;22.10;28.50
34815;DHT22;21030;53.912;15.214;2023-11-19T02:39:24;22.70;29.30
34815;DHT22;21030;53.912;15.214;2023-11-19T02:41:53;22.80;28.80
34815;DHT22;21030;53.912;15.214;2023-11-19T02:44:20;23.80;28.00
34815;DHT22;21030;53.912;15.214;2023-11-19T02:46:47;23.20;28.40
34815;DHT22;21030;53.912;15.214;2023-11-19T02:49:15;22.90;28.40
34815;DHT22;21030;53.912;15.214;2023-11-19T02:51:42;22.40;28.90
34815;DHT22;21030;53.912;15.214;2023-11-19T02:54:10;22.50;29.10
34815;DHT22;21030;53.912;15.214;2023-11-19T02:56:37;23.40;28.70
34815;DHT22;21030;53.912;15.214;2023-11-19T02:59:05;22.80;28.70
34815;DHT22;21030;53.912;15.214;2023-11-19T03:01:42;23.40;29.00
34815;DHT22;21030;53.912;15.214;2023-11-19T03:04:11;23.80;27.70
34815;DHT22;21030;53.912;15.214;2023-11-19T03:06:39;23.50;27.70
34815;DHT22;21030;53.912;15.214;2023-11-19T03:09:06;24.10;27.90
34815;DHT22;21030;53.912;15.214;2023-11-19T03:11:37;24.70;27.10
34815;DHT22;21030;53.912;15.214;2023-11-19T03:14:04;23.70;27.20
34815;DHT22;21030;53.912;15.214;2023-11-19T03:16:31;23.10;27.70
34815;DHT22;21030;53.912;15.214;2023-11-19T03:18:59;23.10;28.40
34815;DHT22;21030;53.912;15.214;2023-11-19T03:21:28;23.60;27.80
34815;DHT22;21030;53.912;15.214;2023-11-19T03:23:56;23.70;27.70
34815;DHT22;21030;53.912;15.214;2023-11-19T03:26:23;23.00;28.10
34815;DHT22;21030;53.912;15.214;2023-11-19T03:28:50;23.20;28.10
34815;DHT22;21030;53.912;15.214;2023-11-19T03:31:17;23.20;27.90
34815;DHT22;21030;53.912;15.214;2023-11-19T03:33:44;23.90;27.70
34815;DHT22;21030;53.912;15.214;2023-11-19T03:36:12;23.90;27.10
34815;DHT22;21030;53.912;15.214;2023-11-19T03:38:39;23.50;27.40
34815;DHT22;21030;53.912;15.214;2023-11-19T03:41:15;23.50;27.40
34815;DHT22;21030;53.912;15.214;2023-11-19T03:43:44;22.60;28.10
34815;DHT22;21030;53.912;15.214;2023-11-19T03:46:20;21.90;28.90
34815;DHT22;21030;53.912;15.214;2023-11-19T03:48:49;22.10;29.10
34815;DHT22;21030;53.912;15.214;2023-11-19T03:51:16;23.20;28.20
34815;DHT22;21030;53.912;15.214;2023-11-19T03:53:47;23.20;27.50
34815;DHT22;21030;53.912;15.214;2023-11-19T03:56:14;24.00;26.80
34815;DHT22;21030;53.912;15.214;2023-11-19T03:58:41;22.10;27.50
34815;DHT22;21030;53.912;15.214;2023-11-19T04:01:12;21.60;29.10
34815;DHT22;21030;53.912;15.214;2023-11-19T04:03:42;22.70;28.90
34815;DHT22;21030;53.912;15.214;2023-11-19T04:06:12;23.00;28.00
34815;DHT22;21030;53.912;15.214;2023-11-19T04:08:39;22.10;28.40
34815;DHT22;21030;53.912;15.214;2023-11-19T04:11:06;22.30;28.70
34815;DHT22;21030;53.912;15.214;2023-11-19T04:13:33;23.60;28.10
34815;DHT22;21030;53.912;15.214;2023-11-19T04:16:00;24.00;26.90
34815;DHT22;21030;53.912;15.214;2023-11-19T04:18:28;24.20;26.60
34815;DHT22;21030;53.912;15.214;2023-11-19T04:20:55;23.40;26.90
34815;DHT22;21030;53.912;15.214;2023-11-19T04:23:23;22.90;27.60
34815;DHT22;21030;53.912;15.214;2023-11-19T04:25:51;23.60;27.40
34815;DHT22;21030;53.912;15.214;2023-11-19T04:28:18;23.10;26.80
34815;DHT22;21030;53.912;15.214;2023-11-19T04:30:45;23.60;26.70
34815;DHT22;21030;53.912;15.214;2023-11-19T04:33:12;24.30;26.40
34815;DHT22;21030;53.912;15.214;2023-11-19T04:35:39;24.40;26.50
34815;DHT22;21030;53.912;15.214;2023-11-19T04:38:06;23.50;26.40
34815;DHT22;21030;53.912;15.214;2023-11-19T04:40:33;23.40;27.00
34815;DHT22;21030;53.912;15.214;2023-11-19T04:43:01;23.60;27.50
34815;DHT22;21030;53.912;15.214;2023-11-19T04:45:28;22.90;27.70
34815;DHT22;21030;53.912;15.214;2023-11-19T04:47:59;22.20;28.10
34815;DHT22;21030;53.912;15.214;2023-11-19T04:50:26;22.40;28.60
34815;DHT22;21030;53.912;15.214;2023-11-19T04:52:54;22.00;29.00
34815;DHT22;21030;53.912;15.214;2023-11-19T04:55:26;22.40;28.80
34815;DHT22;21030;53.912;15.214;2023-11-19T04:57:54;22.70;28.60
34815;DHT22;21030;53.912;15.214;2023-11-19T05:00:21;23.40;28.30
34815;DHT22;21030;53.912;15.214;2023-11-19T05:02:49;22.90;28.70
34815;DHT22;21030;53.912;15.214;2023-11-19T05:05:17;22.80;28.70
34815;DHT22;21030;53.912;15.214;2023-11-19T05:07:44;22.50;28.90
34815;DHT22;21030;53.912;15.214;2023-11-19T05:10:11;23.00;28.90
34815;DHT22;21030;53.912;15.214;2023-11-19T05:12:39;22.40;29.00
34815;DHT22;21030;53.912;15.214;2023-11-19T05:15:06;21.90;29.70
34815;DHT22;21030;53.912;15.214;2023-11-19T05:17:33;21.80;30.00
34815;DHT22;21030;53.912;15.214;2023-11-19T05:20:01;21.90;30.00
34815;DHT22;21030;53.912;15.214;2023-11-19T05:22:28;21.70;29.90
34815;DHT22;21030;53.912;15.214;2023-11-19T05:24:55;21.30;30.30
34815;DHT22;21030;53.912;15.214;2023-11-19T05:27:22;21.50;31.10
34815;DHT22;21030;53.912;15.214;2023-11-19T05:29:50;21.60;30.20
34815;DHT22;21030;53.912;15.214;2023-11-19T05:32:17;21.90;30.00
34815;DHT22;21030;53.912;15.214;2023-11-19T05:34:45;22.10;29.30
34815;DHT22;21030;53.912;15.214;2023-11-19T05:37:14;22.30;29.30
34815;DHT22;21030;53.912;15.214;2023-11-19T05:39:42;23.50;28.50
34815;DHT22;21030;53.912;15.214;2023-11-19T05:42:09;23.30;28.30
34815;DHT22;21030;53.912;15.214;2023-11-19T05:44:37;21.90;29.50
34815;DHT22;21030;53.912;15.214;2023-11-19T05:47:07;22.50;29.90
34815;DHT22;21030;53.912;15.214;2023-11-19T05:49:35;22.50;29.30
34815;DHT22;21030;53.912;15.214;2023-11-19T05:52:03;23.50;28.40
34815;DHT22;21030;53.912;15.214;2023-11-19T05:54:30;22.00;28.30
34815;DHT22;21030;53.912;15.214;2023-11-19T05:56:58;22.40;28.70
34815;DHT22;21030;53.912;15.214;2023-11-19T05:59:25;22.70;28.90
34815;DHT22;21030;53.912;15.214;2023-11-19T06:01:52;22.70;28.60
34815;DHT22;21030;53.912;15.214;2023-11-19T06:04:20;23.40;28.20
34815;DHT22;21030;53.912;15.214;2023-11-19T06:06:47;22.10;29.00
34815;DHT22;21030;53.912;15.214;2023-11-19T06:09:14;22.10;29.50
34815;DHT22;21030;53.912;15.214;2023-11-19T06:11:41;21.70;29.30
34815;DHT22;21030;53.912;15.214;2023-11-19T06:14:08;22.40;29.30
34815;DHT22;21030;53.912;15.214;2023-11-19T06:16:35;21.50;29.50
34815;DHT22;21030;53.912;15.214;2023-11-19T06:19:03;21.70;30.00
34815;DHT22;21030;53.912;15.214;2023-11-19T06:21:31;23.10;29.40
34815;DHT22;21030;53.912;15.214;2023-11-19T06:23:58;21.60;29.20
34815;DHT22;21030;53.912;15.214;2023-11-19T06:26:26;21.40;30.20
34815;DHT22;21030;53.912;15.214;2023-11-19T06:28:54;21.90;29.90
34815;DHT22;21030;53.912;15.214;2023-11-19T06:31:21;21.00;29.80
34815;DHT22;21030;53.912;15.214;2023-11-19T06:33:48;21.00;30.50
34815;DHT22;21030;53.912;15.214;2023-11-19T06:36:15;21.10;30.60
34815;DHT22;21030;53.912;15.214;2023-11-19T06:38:45;20.90;31.00
34815;DHT22;21030;53.912;15.214;2023-11-19T06:41:12;21.70;30.60
34815;DHT22;21030;53.912;15.214;2023-11-19T06:43:39;21.50;30.10
34815;DHT22;21030;53.912;15.214;2023-11-19T06:46:15;21.40;30.00
34815;DHT22;21030;53.912;15.214;2023-11-19T06:48:44;21.20;31.00
34815;DHT22;21030;53.912;15.214;2023-11-19T06:51:12;21.70;30.70
34815;DHT22;21030;53.912;15.214;2023-11-19T06:53:39;22.10;30.00
34815;DHT22;21030;53.912;15.214;2023-11-19T06:56:21;21.80;30.10
34815;DHT22;21030;53.912;15.214;2023-11-19T06:58:48;20.50;30.40
34815;DHT22;21030;53.912;15.214;2023-11-19T07:01:16;20.70;31.30
34815;DHT22;21030;53.912;15.214;2023-11-19T07:03:48;20.50;31.80
34815;DHT22;21030;53.912;15.214;2023-11-19T07:06:15;20.90;31.90
34815;DHT22;21030;53.912;15.214;2023-11-19T07:08:43;20.90;31.30
34815;DHT22;21030;53.912;15.214;2023-11-19T07:11:13;20.50;30.40
34815;DHT22;21030;53.912;15.214;2023-11-19T07:13:44;22.10;30.80
34815;DHT22;21030;53.912;15.214;2023-11-19T07:16:14;22.10;29.80
34815;DHT22;21030;53.912;15.214;2023-11-19T07:18:41;22.20;30.00
34815;DHT22;21030;53.912;15.214;2023-11-19T07:21:11;22.10;29.90
34815;DHT22;21030;53.912;15.214;2023-11-19T07:23:38;22.10;29.20
34815;DHT22;21030;53.912;15.214;2023-11-19T07:26:06;21.30;30.00
34815;DHT22;21030;53.912;15.214;2023-11-19T07:28:35;20.90;30.60
34815;DHT22;21030;53.912;15.214;2023-11-19T07:31:02;21.90;30.10
34815;DHT22;21030;53.912;15.214;2023-11-19T07:33:29;21.00;31.20
34815;DHT22;21030;53.912;15.214;2023-11-19T07:35:56;21.90;30.30
34815;DHT22;21030;53.912;15.214;2023-11-19T07:38:23;22.10;30.00
34815;DHT22;21030;53.912;15.214;2023-11-19T07:40:50;21.10;30.00
34815;DHT22;21030;53.912;15.214;2023-11-19T07:43:21;21.80;30.30
34815;DHT22;21030;53.912;15.214;2023-11-19T07:45:48;22.40;29.40
34815;DHT22;21030;53.912;15.214;2023-11-19T07:48:15;21.60;30.00
34815;DHT22;21030;53.912;15.214;2023-11-19T07:50:44;20.20;30.50
34815;DHT22;21030;53.912;15.214;2023-11-19T07:53:11;20.70;31.90
34815;DHT22;21030;53.912;15.214;2023-11-19T07:55:39;21.40;31.00
34815;DHT22;21030;53.912;15.214;2023-11-19T07:58:08;20.90;31.40
34815;DHT22;21030;53.912;15.214;2023-11-19T08:00:36;21.00;31.40
34815;DHT22;21030;53.912;15.214;2023-11-19T08:03:04;21.30;31.10
34815;DHT22;21030;53.912;15.214;2023-11-19T08:05:31;19.90;31.50
34815;DHT22;21030;53.912;15.214;2023-11-19T08:07:59;21.90;31.30
34815;DHT22;21030;53.912;15.214;2023-11-19T08:10:26;21.90;30.10
34815;DHT22;21030;53.912;15.214;2023-11-19T08:12:53;21.50;30.20
34815;DHT22;21030;53.912;15.214;2023-11-19T08:15:20;20.60;31.10
34815;DHT22;21030;53.912;15.214;2023-11-19T08:17:50;21.50;30.60
34815;DHT22;21030;53.912;15.214;2023-11-19T08:20:18;22.50;30.20
34815;DHT22;21030;53.912;15.214;2023-11-19T08:22:45;21.80;30.00
34815;DHT22;21030;53.912;15.214;2023-11-19T08:25:12;22.40;29.40
34815;DHT22;21030;53.912;15.214;2023-11-19T08:27:39;22.20;29.60
34815;DHT22;21030;53.912;15.214;2023-11-19T08:30:07;22.50;29.30
34815;DHT22;21030;53.912;15.214;2023-11-19T08:32:34;21.90;29.70
34815;DHT22;21030;53.912;15.214;2023-11-19T08:35:02;22.50;29.20
34815;DHT22;21030;53.912;15.214;2023-11-19T08:37:33;23.20;29.10
34815;DHT22;21030;53.912;15.214;2023-11-19T08:40:10;22.60;28.30
34815;DHT22;21030;53.912;15.214;2023-11-19T08:42:37;23.20;28.30
34815;DHT22;21030;53.912;15.214;2023-11-19T08:45:07;23.10;27.40
34815;DHT22;21030;53.912;15.214;2023-11-19T08:47:37;23.10;27.80
34815;DHT22;21030;53.912;15.214;2023-11-19T08:50:05;22.80;28.10
34815;DHT22;21030;53.912;15.214;2023-11-19T08:52:32;22.50;28.30
34815;DHT22;21030;53.912;15.214;2023-11-19T08:55:01;22.60;28.50
34815;DHT22;21030;53.912;15.214;2023-11-19T08:57:28;21.30;28.50
34815;DHT22;21030;53.912;15.214;2023-11-19T08:59:55;21.90;29.30
34815;DHT22;21030;53.912;15.214;2023-11-19T09:02:23;21.30;29.40
34815;DHT22;21030;53.912;15.214;2023-11-19T09:04:50;20.90;30.00
34815;DHT22;21030;53.912;15.214;2023-11-19T09:07:20;20.80;29.80
34815;DHT22;21030;53.912;15.214;2023-11-19T09:09:48;21.10;30.00
34815;DHT22;21030;53.912;15.214;2023-11-19T09:12:15;21.20;30.20
34815;DHT22;21030;53.912;15.214;2023-11-19T09:14:42;21.50;30.00
34815;DHT22;21030;53.912;15.214;2023-11-19T09:17:09;21.40;30.00
34815;DHT22;21030;53.912;15.214;2023-11-19T09:19:41;21.90;29.80
34815;DHT22;21030;53.912;15.214;2023-11-19T09:22:08;22.30;29.20
34815;DHT22;21030;53.912;15.214;2023-11-19T09:24:35;22.50;29.10
34815;DHT22;21030;53.912;15.214;2023-11-19T09:27:03;21.50;29.50
34815;DHT22;21030;53.912;15.214;2023-11-19T09:29:31;21.30;30.30
34815;DHT22;21030;53.912;15.214;2023-11-19T09:31:59;21.50;29.90
34815;DHT22;21030;53.912;15.214;2023-11-19T09:34:28;21.50;30.00
34815;DHT22;21030;53.912;15.214;2023-11-19T09:36:55;22.10;29.80
34815;DHT22;21030;53.912;15.214;2023-11-19T09:39:22;22.20;29.00
34815;DHT22;21030;53.912;15.214;2023-11-19T09:41:50;22.70;28.40
34815;DHT22;21030;53.912;15.214;2023-11-19T09:44:18;22.80;28.70
34815;DHT22;21030;53.912;15.214;2023-11-19T09:46:46;22.40;28.60
34815;DHT22;21030;53.912;15.214;2023-11-19T09:49:21;22.90;28.90
34815;DHT22;21030;53.912;15.214;2023-11-19T09:52:02;23.70;28.20
34815;DHT22;21030;53.912;15.214;2023-11-19T09:54:29;22.90;28.30
34815;DHT22;21030;53.912;15.214;2023-11-19T09:56:58;23.90;27.80
34815;DHT22;21030;53.912;15.214;2023-11-19T09:59:30;23.80;27.50
34815;DHT22;21030;53.912;15.214;2023-11-19T10:01:59;24.30;27.10
34815;DHT22;21030;53.912;15.214;2023-11-19T10:04:29;24.00;27.20
34815;DHT22;21030;53.912;15.214;2023-11-19T10:06:57;23.90;27.20
34815;DHT22;21030;53.912;15.214;2023-11-19T10:09:24;24.50;26.50
34815;DHT22;21030;53.912;15.214;2023-11-19T10:11:51;24.70;26.80
34815;DHT22;21030;53.912;15.214;2023-11-19T10:14:22;24.30;26.60
34815;DHT22;21030;53.912;15.214;2023-11-19T10:16:49;25.00;26.60
34815;DHT22;21030;53.912;15.214;2023-11-19T10:19:20;24.30;26.40
34815;DHT22;21030;53.912;15.214;2023-11-19T10:21:48;23.80;27.80
34815;DHT22;21030;53.912;15.214;2023-11-19T10:24:15;24.40;27.40
34815;DHT22;21030;53.912;15.214;2023-11-19T10:27:02;24.60;26.70
34815;DHT22;21030;53.912;15.214;2023-11-19T10:29:30;26.00;26.40
34815;DHT22;21030;53.912;15.214;2023-11-19T10:31:58;24.00;26.10
34815;DHT22;21030;53.912;15.214;2023-11-19T10:34:45;24.00;27.30
34815;DHT22;21030;53.912;15.214;2023-11-19T10:37:28;25.10;27.20
34815;DHT22;21030;53.912;15.214;2023-11-19T10:39:59;25.30;26.20
34815;DHT22;21030;53.912;15.214;2023-11-19T10:42:27;24.90;26.80
34815;DHT22;21030;53.912;15.214;2023-11-19T10:44:54;23.90;26.60
34815;DHT22;21030;53.912;15.214;2023-11-19T10:47:23;23.90;27.80
34815;DHT22;21030;53.912;15.214;2023-11-19T10:49:53;23.90;27.50
34815;DHT22;21030;53.912;15.214;2023-11-19T10:52:20;24.00;28.00
34815;DHT22;21030;53.912;15.214;2023-11-19T10:54:50;22.70;28.40
34815;DHT22;21030;53.912;15.214;2023-11-19T10:57:21;22.80;28.90
34815;DHT22;21030;53.912;15.214;2023-11-19T10:59:52;22.00;29.10
34815;DHT22;21030;53.912;15.214;2023-11-19T11:02:24;22.10;30.00
34815;DHT22;21030;53.912;15.214;2023-11-19T11:04:53;22.50;29.60
34815;DHT22;21030;53.912;15.214;2023-11-19T11:07:22;21.90;29.00
34815;DHT22;21030;53.912;15.214;2023-11-19T11:10:06;21.50;30.00
34815;DHT22;21030;53.912;15.214;2023-11-19T11:12:36;22.20;30.10
34815;DHT22;21030;53.912;15.214;2023-11-19T11:15:11;21.70;30.00
34815;DHT22;21030;53.912;15.214;2023-11-19T11:17:39;21.50;30.00
34815;DHT22;21030;53.912;15.214;2023-11-19T11:20:10;21.20;30.20
34815;DHT22;21030;53.912;15.214;2023-11-19T11:23:12;22.50;30.20
34815;DHT22;21030;53.912;15.214;2023-11-19T11:29:20;22.70;28.40
34815;DHT22;21030;53.912;15.214;2023-11-19T11:32:14;23.70;29.00
34815;DHT22;21030;53.912;15.214;2023-11-19T11:37:42;23.20;28.70
34815;DHT22;21030;53.912;15.214;2023-11-19T11:40:15;22.30;30.00
34815;DHT22;21030;53.912;15.214;2023-11-19T11:42:42;22.20;29.90
34815;DHT22;21030;53.912;15.214;2023-11-19T11:45:13;21.50;30.40
34815;DHT22;21030;53.912;15.214;2023-11-19T11:55:34;22.30;30.00
34815;DHT22;21030;53.912;15.214;2023-11-19T11:58:05;22.70;29.60
34815;DHT22;21030;53.912;15.214;2023-11-19T12:00:37;23.20;29.30
34815;DHT22;21030;53.912;15.214;2023-11-19T12:03:05;23.50;28.80
34815;DHT22;21030;53.912;15.214;2023-11-19T12:05:43;23.00;29.20
34815;DHT22;21030;53.912;15.214;2023-11-19T12:08:15;22.30;29.60
34815;DHT22;21030;53.912;15.214;2023-11-19T12:13:18;24.50;28.30
34815;DHT22;21030;53.912;15.214;2023-11-19T12:18:27;23.80;27.90
34815;DHT22;21030;53.912;15.214;2023-11-19T12:20:55;23.70;28.50
34815;DHT22;21030;53.912;15.214;2023-11-19T12:23:23;23.60;28.60
34815;DHT22;21030;53.912;15.214;2023-11-19T12:25:50;24.10;28.30
34815;DHT22;21030;53.912;15.214;2023-11-19T12:28:18;24.80;28.20
34815;DHT22;21030;53.912;15.214;2023-11-19T12:30:45;24.40;27.50
34815;DHT22;21030;53.912;15.214;2023-11-19T12:33:14;24.50;28.50
34815;DHT22;21030;53.912;15.214;2023-11-19T12:35:45;24.90;28.40
34815;DHT22;21030;53.912;15.214;2023-11-19T12:38:21;25.30;28.40
34815;DHT22;21030;53.912;15.214;2023-11-19T12:41:09;26.00;26.90
34815;DHT22;21030;53.912;15.214;2023-11-19T12:43:40;25.20;26.20
34815;DHT22;21030;53.912;15.214;2023-11-19T12:46:20;25.30;26.70
34815;DHT22;21030;53.912;15.214;2023-11-19T12:48:49;24.40;27.40
34815;DHT22;21030;53.912;15.214;2023-11-19T12:51:17;25.60;27.70
34815;DHT22;21030;53.912;15.214;2023-11-19T12:53:53;25.90;27.30
34815;DHT22;21030;53.912;15.214;2023-11-19T12:56:25;25.50;27.20
34815;DHT22;21030;53.912;15.214;2023-11-19T12:58:52;25.90;27.00
34815;DHT22;21030;53.912;15.214;2023-11-19T13:01:20;26.20;27.00
34815;DHT22;21030;53.912;15.214;2023-11-19T13:03:47;26.70;27.10
34815;DHT22;21030;53.912;15.214;2023-11-19T13:06:18;26.50;26.00
34815;DHT22;21030;53.912;15.214;2023-11-19T13:08:49;26.60;26.50
34815;DHT22;21030;53.912;15.214;2023-11-19T13:11:33;25.70;27.10
34815;DHT22;21030;53.912;15.214;2023-11-19T13:14:04;25.30;27.80
34815;DHT22;21030;53.912;15.214;2023-11-19T13:16:32;25.50;27.10
34815;DHT22;21030;53.912;15.214;2023-11-19T13:19:00;26.00;27.60
34815;DHT22;21030;53.912;15.214;2023-11-19T13:21:28;25.70;26.70
34815;DHT22;21030;53.912;15.214;2023-11-19T13:23:55;26.10;27.00
34815;DHT22;21030;53.912;15.214;2023-11-19T13:26:22;26.30;27.00
34815;DHT22;21030;53.912;15.214;2023-11-19T13:28:49;26.80;26.70
34815;DHT22;21030;53.912;15.214;2023-11-19T13:31:16;27.10;26.40
34815;DHT22;21030;53.912;15.214;2023-11-19T13:33:53;26.50;27.00
34815;DHT22;21030;53.912;15.214;2023-11-19T13:36:24;27.50;27.30
34815;DHT22;21030;53.912;15.214;2023-11-19T13:38:58;27.20;26.50
34815;DHT22;21030;53.912;15.214;2023-11-19T13:41:26;26.70;26.70
34815;DHT22;21030;53.912;15.214;2023-11-19T13:43:54;27.30;26.60
34815;DHT22;21030;53.912;15.214;2023-11-19T13:46:22;27.60;26.30
34815;DHT22;21030;53.912;15.214;2023-11-19T13:48:49;27.40;26.10
34815;DHT22;21030;53.912;15.214;2023-11-19T13:51:16;27.00;26.10
34815;DHT22;21030;53.912;15.214;2023-11-19T13:53:43;27.30;27.10
34815;DHT22;21030;53.912;15.214;2023-11-19T13:56:14;26.90;26.30
34815;DHT22;21030;53.912;15.214;2023-11-19T13:58:41;26.50;27.00
34815;DHT22;21030;53.912;15.214;2023-11-19T14:01:08;26.50;27.10
34815;DHT22;21030;53.912;15.214;2023-11-19T14:03:35;26.30;28.20
34815;DHT22;21030;53.912;15.214;2023-11-19T14:06:03;26.60;26.40
34815;DHT22;21030;53.912;15.214;2023-11-19T14:08:30;26.20;26.60
34815;DHT22;21030;53.912;15.214;2023-11-19T14:10:57;26.40;26.80
34815;DHT22;21030;53.912;15.214;2023-11-19T14:13:24;27.00;26.40
34815;DHT22;21030;53.912;15.214;2023-11-19T14:15:52;27.40;26.40
34815;DHT22;21030;53.912;15.214;2023-11-19T14:18:19;27.80;26.30
34815;DHT22;21030;53.912;15.214;2023-11-19T14:20:46;27.30;26.00
34815;DHT22;21030;53.912;15.214;2023-11-19T14:23:14;26.60;25.90
34815;DHT22;21030;53.912;15.214;2023-11-19T14:25:41;27.30;26.20
34815;DHT22;21030;53.912;15.214;2023-11-19T14:28:08;27.60;25.90
34815;DHT22;21030;53.912;15.214;2023-11-19T14:30:36;27.80;25.70
34815;DHT22;21030;53.912;15.214;2023-11-19T14:33:04;27.80;25.70
34815;DHT22;21030;53.912;15.214;2023-11-19T14:35:32;27.90;25.70
34815;DHT22;21030;53.912;15.214;2023-11-19T14:38:00;27.80;25.80
34815;DHT22;21030;53.912;15.214;2023-11-19T14:40:31;27.80;26.10
34815;DHT22;21030;53.912;15.214;2023-11-19T14:43:01;27.20;26.50
34815;DHT22;21030;53.912;15.214;2023-11-19T14:45:30;28.10;26.30
34815;DHT22;21030;53.912;15.214;2023-11-19T14:48:07;28.50;26.40
34815;DHT22;21030;53.912;15.214;2023-11-19T14:50:34;28.60;25.40
34815;DHT22;21030;53.912;15.214;2023-11-19T14:53:02;27.70;25.90
34815;DHT22;21030;53.912;15.214;2023-11-19T14:55:29;28.20;25.60
34815;DHT22;21030;53.912;15.214;2023-11-19T14:58:03;28.40;26.20
34815;DHT22;21030;53.912;15.214;2023-11-19T15:00:37;27.80;26.40
34815;DHT22;21030;53.912;15.214;2023-11-19T15:03:07;26.90;26.30
34815;DHT22;21030;53.912;15.214;2023-11-19T15:05:36;27.50;26.20
34815;DHT22;21030;53.912;15.214;2023-11-19T15:08:03;27.80;26.40
34815;DHT22;21030;53.912;15.214;2023-11-19T15:10:30;28.00;25.80
34815;DHT22;21030;53.912;15.214;2023-11-19T15:12:58;28.00;25.70
34815;DHT22;21030;53.912;15.214;2023-11-19T15:15:25;28.30;25.80
34815;DHT22;21030;53.912;15.214;2023-11-19T15:17:55;27.40;25.80
34815;DHT22;21030;53.912;15.214;2023-11-19T15:20:22;27.70;26.00
34815;DHT22;21030;53.912;15.214;2023-11-19T15:22:51;27.70;25.60
34815;DHT22;21030;53.912;15.214;2023-11-19T15:25:18;27.20;25.30
34815;DHT22;21030;53.912;15.214;2023-11-19T15:27:46;27.70;25.90
34815;DHT22;21030;53.912;15.214;2023-11-19T15:30:13;28.00;25.60
34815;DHT22;21030;53.912;15.214;2023-11-19T15:32:40;28.40;25.70
34815;DHT22;21030;53.912;15.214;2023-11-19T15:35:09;26.20;24.80
34815;DHT22;21030;53.912;15.214;2023-11-19T15:37:40;26.10;26.30
34815;DHT22;21030;53.912;15.214;2023-11-19T15:40:11;26.70;26.80
34815;DHT22;21030;53.912;15.214;2023-11-19T15:42:40;26.90;26.10
34815;DHT22;21030;53.912;15.214;2023-11-19T15:45:08;27.60;26.50